Startpagina
METAR-TAF:

METAR-TAF

Vliegvelden :

Uden, Nederland

Vliegbasis Volkel

breedte: 51-39N, lengte: 005-42E, hoogte: 22 m

Actueel weer

Dit bericht is 39 minuten geleden gemaakt, om 09:25 UTC
Wind 5 kt uit het zuiden, variërend tussen het zuidoosten en het zuidzuidwesten
Temperatuur 1°C
Vochtigheid 80%
Druk 1020 hPa
Zicht: 9000 m
Weinig wolken op 4700 ft
Verspreide wolken op 5600 ft
Gebroken wolken op 7700 ft
nevel

METAR: EHVK 190925Z AUTO 17005KT 130V200 9000 BR FEW047 SCT056 BKN077 01/M02 Q1020 BLU

Tijdstip: 11:04 (10:04 UTC)


TAF: ontbreekt

Waarnemingen en weersverwachtingen van meer dan 4000 vliegvelden (METAR en TAF).

De beschikbare stations zijn de gele en rode punten op de kaart.

Ga met uw muis naar het station om de naam te zien.

Klik dan om waarnemingen en weersverwachtingen te zien.

kaart wijzigen: klik op de groene knoppen met een zwart kruis om in te zoomen, op de groene knop met een streepje om uit te zoomen of op de groene pijlen voor aangrenzende kaarten.


METAR-TAF: